Time;durP1;ratioP1;P1;durP2;ratioP2;P2;SDS_P1;SDS_P2;PMS_P1;PMS_P2;Temp;Humidity;BMP_temperature;BMP_pressure;BME280_temperature;BME280_humidity;BME280_pressure;Samples;Min_cycle;Max_cycle;Signal;HPM_P1;HPM_P2
2022/04/15 00:00:38;;;;;;;7.40;5.10;;;;;;;3.95;70.99;101815.59;5116651;28;20518;-70
2022/04/15 00:03:05;;;;;;;11.17;6.10;;;;;;;3.91;71.36;101814.94;5116522;28;20462;-67
2022/04/15 00:05:37;;;;;;;5.87;4.93;;;;;;;3.77;71.55;101807.03;5116286;28;20357;-70
2022/04/15 00:08:11;;;;;;;13.63;6.07;;;;;;;3.78;71.65;101815.78;5116146;28;20711;-69
2022/04/15 00:10:45;;;;;;;7.40;6.17;;;;;;;3.84;71.81;101829.44;5117220;28;20270;-69
2022/04/15 00:13:12;;;;;;;9.37;5.47;;;;;;;3.78;71.67;101813.16;5116260;28;20313;-69
2022/04/15 00:15:39;;;;;;;17.13;9.47;;;;;;;3.74;71.80;101812.47;5115934;28;20305;-70
2022/04/15 00:18:05;;;;;;;23.07;15.63;;;;;;;3.70;71.62;101821.50;5116090;28;20305;-69
2022/04/15 00:20:32;;;;;;;26.60;19.33;;;;;;;3.69;71.76;101823.28;5116033;28;20301;-69
2022/04/15 00:22:58;;;;;;;21.70;15.87;;;;;;;3.55;71.95;101798.72;5116165;28;20562;-68
2022/04/15 00:25:25;;;;;;;23.97;16.23;;;;;;;3.67;71.87;101821.69;5117411;28;20353;-69
2022/04/15 00:27:51;;;;;;;21.57;16.93;;;;;;;3.71;72.14;101821.41;5116052;28;20837;-71
2022/04/15 00:30:17;;;;;;;19.80;17.40;;;;;;;3.74;71.41;101817.72;5097532;28;20270;-69
2022/04/15 00:32:43;;;;;;;16.17;14.47;;;;;;;3.70;71.63;101810.97;5115679;28;20269;-70
2022/04/15 00:35:10;;;;;;;14.37;12.60;;;;;;;3.75;71.07;101803.63;5115738;28;20039;-69
2022/04/15 00:37:36;;;;;;;11.87;10.77;;;;;;;3.75;71.26;101811.53;5115886;28;20032;-68
2022/04/15 00:40:03;;;;;;;11.77;10.57;;;;;;;3.66;71.27;101798.91;5117365;28;20277;-69
2022/04/15 00:42:29;;;;;;;7.10;6.40;;;;;;;3.69;71.70;101804.00;5115608;28;20276;-69
2022/04/15 00:45:00;;;;;;;7.37;6.67;;;;;;;3.69;71.32;101809.25;5115654;28;20262;-69
2022/04/15 00:47:51;;;;;;;7.10;6.07;;;;;;;3.70;72.05;101821.50;5115427;28;20281;-69
2022/04/15 00:50:19;;;;;;;4.93;3.53;;;;;;;3.59;71.37;101810.78;5097250;28;20274;-69
2022/04/15 00:52:48;;;;;;;5.07;4.57;;;;;;;3.54;71.73;101810.19;5115595;28;20266;-68
2022/04/15 00:55:15;;;;;;;4.80;3.78;;;;;;;3.52;72.28;101804.19;5117076;28;20503;-69
2022/04/15 00:57:43;;;;;;;4.07;3.40;;;;;;;3.56;72.38;101792.53;5115269;28;20435;-69
2022/04/15 01:00:10;;;;;;;5.45;3.55;;;;;;;3.57;72.67;101808.22;5115378;28;20311;-69
2022/04/15 01:02:38;;;;;;;6.43;3.40;;;;;;;3.50;72.58;101800.78;5116819;28;20096;-68
2022/04/15 01:05:06;;;;;;;4.00;3.50;;;;;;;3.47;73.25;101806.22;5116852;28;20771;-69
2022/04/15 01:07:36;;;;;;;4.22;3.22;;;;;;;3.39;73.31;101797.00;5115758;28;20265;-68
2022/04/15 01:10:08;;;;;;;4.43;3.53;;;;;;;3.41;73.03;101810.06;5116590;28;20165;-68
2022/04/15 01:12:37;;;;;;;7.87;3.00;;;;;;;3.40;72.88;101803.09;5115435;28;20265;-69
2022/04/15 01:15:07;;;;;;;3.47;2.80;;;;;;;3.41;73.31;101797.75;5115039;28;20289;-69
2022/04/15 01:17:35;;;;;;;4.97;3.00;;;;;;;3.38;72.66;101779.50;5114798;28;20606;-69
2022/04/15 01:20:03;;;;;;;4.85;2.78;;;;;;;3.63;71.99;101805.22;5115262;28;20270;-69
2022/04/15 01:22:37;;;;;;;3.83;3.05;;;;;;;3.60;72.49;101796.66;5115028;28;20100;-69
2022/04/15 01:25:03;;;;;;;6.27;3.40;;;;;;;3.69;72.11;101796.94;5115692;28;20035;-69
2022/04/15 01:27:34;;;;;;;3.07;2.40;;;;;;;3.59;72.07;101773.91;5114938;28;20288;-69
2022/04/15 01:30:00;;;;;;;3.90;2.73;;;;;;;3.75;71.91;101808.88;5114873;28;20265;-70
2022/04/15 01:32:25;;;;;;;5.50;2.73;;;;;;;3.77;72.79;101791.22;5114857;28;20264;-70
2022/04/15 01:34:51;;;;;;;3.83;3.20;;;;;;;3.77;72.48;101793.88;5114822;28;20035;-70
2022/04/15 01:37:19;;;;;;;4.40;2.60;;;;;;;3.53;72.40;101747.94;5114445;28;20039;-71
2022/04/15 01:39:46;;;;;;;6.27;2.90;;;;;;;3.69;71.59;101764.47;5115762;28;20269;-70
2022/04/15 01:42:16;;;;;;;3.00;2.67;;;;;;;3.78;71.95;101785.00;5116855;28;20322;-70
2022/04/15 01:44:42;;;;;;;2.70;2.50;;;;;;;3.80;72.10;101785.75;5114705;28;20277;-69
2022/04/15 01:47:08;;;;;;;3.47;2.80;;;;;;;3.70;71.84;101781.97;5114525;28;20257;-69
2022/04/15 01:49:34;;;;;;;2.83;2.57;;;;;;;3.75;71.47;101779.91;5114204;28;20609;-70
2022/04/15 01:52:00;;;;;;;4.87;3.47;;;;;;;3.66;72.13;101767.31;5114524;28;20280;-68
2022/04/15 01:54:28;;;;;;;3.83;3.40;;;;;;;3.70;72.42;101785.47;5114394;28;20035;-71
2022/04/15 01:56:57;;;;;;;4.38;3.53;;;;;;;3.72;72.75;101793.28;5114988;28;20097;-70
2022/04/15 01:59:23;;;;;;;4.90;3.78;;;;;;;3.62;73.16;101778.97;5114385;28;20078;-69
2022/04/15 02:01:49;;;;;;;5.00;3.20;;;;;;;3.64;73.26;101785.00;5114234;28;20090;-70
2022/04/15 02:04:15;;;;;;;3.47;3.13;;;;;;;3.61;72.95;101785.19;5114337;28;20114;-68
2022/04/15 02:06:41;;;;;;;3.53;3.03;;;;;;;3.60;73.23;101788.75;5113724;28;20357;-69
2022/04/15 02:09:06;;;;;;;3.47;3.13;;;;;;;3.56;73.21;101782.84;5114187;28;20028;-70
2022/04/15 02:11:34;;;;;;;5.77;3.57;;;;;;;3.52;72.75;101775.22;5115928;28;20031;-70
2022/04/15 02:14:01;;;;;;;3.10;2.83;;;;;;;3.62;72.50;101785.09;5113853;28;20074;-69
2022/04/15 02:16:27;;;;;;;4.03;3.03;;;;;;;3.59;72.68;101789.69;5113736;28;20388;-69
2022/04/15 02:18:53;;;;;;;5.33;3.63;;;;;;;3.58;72.20;101782.72;5095270;28;20285;-69
2022/04/15 02:21:18;;;;;;;6.07;3.57;;;;;;;3.64;72.17;101788.47;5113646;28;20258;-70
2022/04/15 02:23:44;;;;;;;5.47;4.10;;;;;;;3.55;71.95;101769.75;5113747;28;20460;-68
2022/04/15 02:26:09;;;;;;;4.50;4.10;;;;;;;3.65;72.48;101794.59;5115147;28;20074;-69
2022/04/15 02:28:35;;;;;;;3.97;3.60;;;;;;;3.62;71.92;101781.59;5113595;28;20036;-69
2022/04/15 02:31:01;;;;;;;6.10;5.47;;;;;;;3.63;71.49;101785.94;5113478;28;20126;-69
2022/04/15 02:33:27;;;;;;;5.17;4.67;;;;;;;3.55;72.26;101781.13;5113251;28;20089;-68
2022/04/15 02:35:52;;;;;;;4.10;3.70;;;;;;;3.62;71.65;101789.50;5113205;28;20039;-69
2022/04/15 02:38:18;;;;;;;5.43;4.00;;;;;;;3.63;71.82;101788.56;5113806;28;20254;-70
2022/04/15 02:40:44;;;;;;;7.00;4.17;;;;;;;3.60;71.91;101786.13;5114511;28;20424;-70
2022/04/15 02:43:10;;;;;;;4.00;3.60;;;;;;;3.54;72.01;101776.81;5114391;28;20043;-71
2022/04/15 02:45:36;;;;;;;3.90;3.50;;;;;;;3.65;71.72;101791.97;5113259;28;20280;-69
2022/04/15 02:48:02;;;;;;;6.33;3.80;;;;;;;3.58;72.21;101795.91;5113381;28;20269;-71
2022/04/15 02:50:28;;;;;;;5.03;3.17;;;;;;;3.53;71.97;101795.34;5113132;28;20112;-70
2022/04/15 02:52:53;;;;;;;4.00;3.07;;;;;;;3.50;71.97;101787.63;5113284;28;20053;-69
2022/04/15 02:55:19;;;;;;;4.30;3.90;;;;;;;3.52;72.14;101785.75;5095766;28;20748;-68
2022/04/15 02:57:44;;;;;;;8.50;4.93;;;;;;;3.59;71.78;101787.91;5115024;28;20108;-69
2022/04/15 03:00:12;;;;;;;6.33;4.33;;;;;;;3.60;72.00;101779.06;5116913;28;20140;-69
2022/04/15 03:02:38;;;;;;;5.60;3.97;;;;;;;3.61;71.91;101779.91;5113009;28;20117;-68
2022/04/15 03:05:04;;;;;;;4.63;4.17;;;;;;;3.64;71.89;101779.72;5112893;28;20253;-69
2022/04/15 03:07:29;;;;;;;7.07;3.97;;;;;;;3.64;71.95;101770.03;5112828;28;20127;-68
2022/04/15 03:09:55;;;;;;;5.23;4.20;;;;;;;3.61;71.50;101766.75;5112897;28;20261;-69
2022/04/15 03:12:20;;;;;;;5.53;4.20;;;;;;;3.68;72.22;101786.50;5113247;28;20035;-69
2022/04/15 03:14:50;;;;;;;5.03;3.77;;;;;;;3.67;71.48;101777.75;5112428;28;20047;-71
2022/04/15 03:17:19;;;;;;;4.63;3.70;;;;;;;3.70;71.41;101779.34;5112627;28;20047;-69
2022/04/15 03:19:45;;;;;;;6.40;5.07;;;;;;;3.64;71.71;101772.66;5112436;28;20318;-70
2022/04/15 03:22:10;;;;;;;6.33;4.37;;;;;;;3.71;72.00;101773.13;5112598;28;20036;-69
2022/04/15 03:24:36;;;;;;;8.53;4.23;;;;;;;3.68;72.33;101761.00;5112599;28;20039;-69
2022/04/15 03:27:01;;;;;;;7.57;4.00;;;;;;;3.74;71.24;101759.78;5113454;28;20394;-70
2022/04/15 03:29:27;;;;;;;5.63;4.20;;;;;;;3.81;71.79;101765.53;5111677;28;20103;-71
2022/04/15 03:31:52;;;;;;;5.53;3.70;;;;;;;3.85;71.77;101773.16;5094241;28;20092;-70
2022/04/15 03:34:18;;;;;;;4.97;4.03;;;;;;;3.87;71.65;101775.69;5112382;28;20036;-70
2022/04/15 03:36:45;;;;;;;6.60;3.90;;;;;;;3.88;71.34;101786.13;5112423;28;20031;-69
2022/04/15 03:39:11;;;;;;;3.93;3.33;;;;;;;3.80;71.13;101777.00;5112581;28;20413;-69
2022/04/15 03:41:37;;;;;;;4.57;3.47;;;;;;;3.80;70.76;101775.22;5114144;28;20261;-68
2022/04/15 03:44:12;;;;;;;5.10;3.87;;;;;;;3.87;71.13;101780.97;5114708;28;20038;-70
2022/04/15 03:46:38;;;;;;;5.83;4.00;;;;;;;3.89;71.16;101789.63;5112581;28;20780;-69
2022/04/15 03:49:05;;;;;;;6.07;4.07;;;;;;;3.81;71.17;101774.28;5112613;28;20775;-70
2022/04/15 03:51:30;;;;;;;16.20;5.20;;;;;;;3.89;70.92;101779.91;5112057;28;20265;-69
2022/04/15 03:53:56;;;;;;;6.33;3.80;;;;;;;3.89;70.97;101785.19;5112168;28;20266;-69
2022/04/15 03:56:21;;;;;;;6.77;4.33;;;;;;;3.94;71.41;101780.47;5113204;28;20463;-70
2022/04/15 03:58:47;;;;;;;5.00;4.27;;;;;;;3.91;70.74;101791.22;5112960;28;20065;-69
2022/04/15 04:01:12;;;;;;;6.43;3.90;;;;;;;3.90;70.54;101792.16;5111996;28;20063;-70
2022/04/15 04:03:38;;;;;;;5.57;3.67;;;;;;;3.87;70.06;101796.78;5111989;28;20421;-70
2022/04/15 04:06:03;;;;;;;5.97;3.70;;;;;;;3.82;70.07;101794.41;5112110;28;20513;-69
2022/04/15 04:08:29;;;;;;;3.67;3.17;;;;;;;3.78;69.88;101792.91;5118917;28;20101;-68
2022/04/15 04:10:55;;;;;;;7.07;2.73;;;;;;;3.72;69.58;101795.91;5115511;28;20062;-70
2022/04/15 04:13:20;;;;;;;4.17;3.00;;;;;;;3.63;70.17;101789.41;5113007;28;20038;-70
2022/04/15 04:15:49;;;;;;;8.50;3.47;;;;;;;3.66;70.28;101786.59;5112018;28;20437;-70
2022/04/15 04:18:17;;;;;;;4.90;3.15;;;;;;;3.71;70.75;101799.47;5112057;28;20050;-70
2022/04/15 04:20:43;;;;;;;5.57;3.08;;;;;;;3.69;70.10;101785.56;5112137;28;20054;-77
2022/04/15 04:23:09;;;;;;;10.47;3.30;;;;;;;3.78;70.36;101798.19;5112064;28;20502;-71
2022/04/15 04:25:35;;;;;;;8.57;2.67;;;;;;;3.73;70.27;101789.69;5111913;28;20040;-70
2022/04/15 04:28:00;;;;;;;6.63;3.30;;;;;;;3.71;70.69;101787.16;5116474;28;20040;-70
2022/04/15 04:30:26;;;;;;;6.73;4.27;;;;;;;3.76;70.51;101789.53;5111498;28;20035;-69
2022/04/15 04:32:52;;;;;;;9.60;3.43;;;;;;;3.87;70.06;101800.25;5076879;28;20032;-71
2022/04/15 04:35:21;;;;;;;4.57;2.73;;;;;;;3.91;69.40;101787.72;5111886;28;20040;-70
2022/04/15 04:37:47;;;;;;;7.53;3.00;;;;;;;4.02;69.81;101791.38;5111896;28;20258;-67
2022/04/15 04:40:14;;;;;;;7.23;3.63;;;;;;;4.11;69.19;101789.13;5111625;28;20274;-72
2022/04/15 04:42:41;;;;;;;7.37;3.60;;;;;;;4.11;68.90;101784.72;5118942;28;20250;-71
2022/04/15 04:45:10;;;;;;;7.17;3.03;;;;;;;4.17;69.22;101786.97;5116490;28;20304;-68
2022/04/15 04:47:37;;;;;;;;;;;;;;;4.23;68.37;101785.72;5116141;28;20288;-69
2022/04/15 04:50:04;;;;;;;11.13;3.50;;;;;;;4.14;68.86;101778.41;5115491;28;20048;-70
2022/04/15 04:52:32;;;;;;;5.63;3.50;;;;;;;4.10;68.58;101761.09;5115665;28;20265;-69
2022/04/15 04:54:58;;;;;;;6.30;4.70;;;;;;;4.24;68.60;101779.50;5115291;28;20266;-71
2022/04/15 04:57:23;;;;;;;3.20;2.77;;;;;;;4.33;68.72;101789.47;5117606;28;20084;-71
2022/04/15 04:59:49;;;;;;;4.73;3.27;;;;;;;4.38;68.37;101784.75;5115062;28;20043;-71
2022/04/15 05:02:15;;;;;;;8.77;3.00;;;;;;;4.47;67.91;101778.88;5097463;28;20081;-71
2022/04/15 05:04:40;;;;;;;6.50;3.00;;;;;;;4.49;68.39;101790.19;5115141;28;20059;-72
2022/04/15 05:07:06;;;;;;;7.23;3.93;;;;;;;4.68;68.59;101783.72;5115460;28;20023;-71
2022/04/15 05:09:31;;;;;;;4.33;3.70;;;;;;;4.73;67.03;101777.22;5115275;28;20036;-72
2022/04/15 05:11:57;;;;;;;12.17;3.83;;;;;;;4.80;67.24;101786.41;5116317;28;20496;-70
2022/04/15 05:14:24;;;;;;;6.50;3.03;;;;;;;4.86;67.42;101790.44;5114956;28;20444;-70
2022/04/15 05:16:49;;;;;;;8.07;3.63;;;;;;;4.93;66.98;101778.53;5114952;28;20135;-72
2022/04/15 05:19:15;;;;;;;8.23;3.20;;;;;;;5.09;66.39;101783.63;5115305;28;20257;-72
2022/04/15 05:21:40;;;;;;;6.13;3.20;;;;;;;5.24;65.66;101786.13;5114750;28;20031;-71
2022/04/15 05:24:09;;;;;;;5.77;3.37;;;;;;;5.48;65.42;101795.94;5114614;28;20047;-71
2022/04/15 05:26:36;;;;;;;11.02;3.55;;;;;;;5.54;64.84;101790.25;5096906;28;20027;-71
2022/04/15 05:29:03;;;;;;;5.97;2.77;;;;;;;5.47;65.20;101789.81;5127757;27;20121;-72
2022/04/15 05:31:28;;;;;;;4.87;3.20;;;;;;;5.45;65.44;101790.88;5120532;27;20273;-72
2022/04/15 05:33:54;;;;;;;6.17;3.27;;;;;;;5.38;65.20;101781.69;5123649;27;20688;-73
2022/04/15 05:36:19;;;;;;;4.67;3.13;;;;;;;5.42;65.31;101783.16;5124955;27;20092;-72
2022/04/15 05:38:45;;;;;;;6.37;3.47;;;;;;;5.49;65.08;101797.63;5125043;27;20035;-71
2022/04/15 05:41:11;;;;;;;11.33;4.10;;;;;;;5.42;65.58;101793.72;5123065;27;20055;-71
2022/04/15 05:43:37;;;;;;;6.40;3.10;;;;;;;5.31;65.33;101783.06;5130988;27;20027;-71
2022/04/15 05:46:03;;;;;;;11.97;3.60;;;;;;;5.33;65.27;101786.44;5121641;27;20035;-71
2022/04/15 05:48:29;;;;;;;8.93;3.40;;;;;;;5.27;66.16;101788.53;5128408;27;20262;-69
2022/04/15 05:50:55;;;;;;;7.10;3.80;;;;;;;5.23;66.19;101786.22;5121222;27;20277;-72
2022/04/15 05:53:20;;;;;;;11.27;3.90;;;;;;;5.34;65.85;101788.13;5123508;27;20039;-70
2022/04/15 05:55:46;;;;;;;7.07;3.37;;;;;;;5.52;64.65;101790.38;5124896;27;20043;-70
2022/04/15 05:58:11;;;;;;;9.47;3.30;;;;;;;5.53;64.67;101784.13;5130598;27;20028;-70
2022/04/15 06:01:02;;;;;;;8.83;3.37;;;;;;;5.46;64.62;101777.56;5133489;27;20103;-70
2022/04/15 06:03:32;;;;;;;7.93;2.47;;;;;;;5.37;65.15;101772.06;5142029;27;20285;-68
2022/04/15 06:05:59;;;;;;;8.03;2.43;;;;;;;5.54;64.24;101790.25;5132863;27;20304;-66
2022/04/15 06:08:25;;;;;;;3.73;2.40;;;;;;;5.52;64.55;101777.16;5125709;27;20261;-67
2022/04/15 06:10:50;;;;;;;4.87;2.70;;;;;;;5.58;65.04;101783.81;5134620;27;20271;-67
2022/04/15 06:13:19;;;;;;;3.70;2.67;;;;;;;5.79;64.75;101784.97;5136796;27;20031;-67
2022/04/15 06:15:57;;;;;;;6.83;2.97;;;;;;;5.80;63.92;101791.97;5133975;27;20143;-70
2022/04/15 06:18:25;;;;;;;9.77;3.28;;;;;;;5.87;63.74;101782.66;5134641;27;20281;-66
2022/04/15 06:20:52;;;;;;;5.70;4.07;;;;;;;5.96;62.86;101796.19;5134370;27;20052;-67
2022/04/15 06:23:18;;;;;;;13.50;4.37;;;;;;;5.98;63.62;101794.28;5134372;27;20027;-66
2022/04/15 06:25:45;;;;;;;9.33;3.63;;;;;;;6.10;62.83;101801.38;5134388;27;20800;-69
2022/04/15 06:28:11;;;;;;;6.33;3.10;;;;;;;6.22;62.64;101796.03;5135635;27;20313;-69
2022/04/15 06:30:36;;;;;;;12.40;3.53;;;;;;;6.27;61.87;101785.13;5134203;27;20265;-66
2022/04/15 06:33:05;;;;;;;7.13;3.70;;;;;;;6.34;61.64;101783.72;5134209;27;20509;-69
2022/04/15 06:35:32;;;;;;;8.63;3.92;;;;;;;6.57;61.13;101794.47;5133716;27;20031;-68
2022/04/15 06:37:58;;;;;;;10.97;4.93;;;;;;;6.50;61.05;101786.97;5133938;27;20100;-65
2022/04/15 06:40:23;;;;;;;5.13;2.60;;;;;;;6.44;60.91;101787.44;5133812;27;20784;-65
2022/04/15 06:42:49;;;;;;;6.60;2.97;;;;;;;6.28;61.36;101780.69;5135206;27;20139;-65
2022/04/15 06:45:14;;;;;;;6.03;2.83;;;;;;;6.29;61.98;101777.09;5133835;27;20168;-70
2022/04/15 06:47:40;;;;;;;8.40;3.73;;;;;;;6.26;61.17;101788.72;5133548;27;20107;-65
2022/04/15 06:50:06;;;;;;;8.60;3.17;;;;;;;6.33;61.25;101787.34;5133226;27;20035;-66
2022/04/15 06:52:32;;;;;;;7.80;4.13;;;;;;;6.58;60.30;101798.78;5133626;27;20127;-67
2022/04/15 06:54:58;;;;;;;5.40;3.00;;;;;;;6.63;60.45;101786.06;5133598;27;20850;-68
2022/04/15 06:57:23;;;;;;;5.00;2.70;;;;;;;6.72;60.14;101782.78;5134013;27;20031;-67
2022/04/15 06:59:49;;;;;;;11.93;3.93;;;;;;;6.87;59.94;101794.00;5115671;27;20386;-67
2022/04/15 07:02:15;;;;;;;10.10;2.97;;;;;;;6.98;59.22;101789.63;5133602;27;20038;-67
2022/04/15 07:04:40;;;;;;;6.53;2.93;;;;;;;7.01;59.04;101796.50;5133228;27;20273;-66
2022/04/15 07:07:06;;;;;;;4.67;2.77;;;;;;;6.70;59.07;101771.44;5133309;27;20447;-66
2022/04/15 07:09:32;;;;;;;5.07;2.97;;;;;;;6.93;59.33;101794.41;5133398;27;20023;-70
2022/04/15 07:11:57;;;;;;;13.30;3.20;;;;;;;6.94;59.29;101790.81;5115234;27;20079;-68
2022/04/15 07:14:29;;;;;;;9.87;2.60;;;;;;;7.00;59.18;101805.41;5133890;27;20489;-68
2022/04/15 07:16:54;;;;;;;10.27;4.03;;;;;;;6.97;59.11;101795.03;5133495;27;20050;-68
2022/04/15 07:19:20;;;;;;;10.77;3.47;;;;;;;7.14;59.56;101792.81;5133717;27;20490;-66
2022/04/15 07:21:46;;;;;;;8.37;3.30;;;;;;;7.14;58.83;101795.44;5134197;27;20110;-71
2022/04/15 07:24:11;;;;;;;9.63;3.20;;;;;;;7.08;59.11;101795.91;5137108;27;20066;-65
2022/04/15 07:26:37;;;;;;;6.10;4.03;;;;;;;7.11;59.14;101798.34;5140473;27;20038;-69
2022/04/15 07:29:03;;;;;;;6.60;3.93;;;;;;;7.20;58.63;101780.06;5137331;27;20035;-66
2022/04/15 07:31:28;;;;;;;8.80;3.70;;;;;;;7.10;58.63;101788.69;5121218;27;20031;-66
2022/04/15 07:33:54;;;;;;;9.43;3.57;;;;;;;7.05;59.12;101790.84;5135735;27;20084;-66
2022/04/15 07:39:06;;;;;;;9.00;3.47;;;;;;;7.17;59.30;101793.53;5132980;27;20042;-66
2022/04/15 07:41:33;;;;;;;9.77;3.87;;;;;;;7.28;57.86;101804.19;5132774;27;20045;-65
2022/04/15 07:43:58;;;;;;;8.03;4.33;;;;;;;7.11;58.44;101803.63;5114394;27;20083;-67
2022/04/15 07:46:24;;;;;;;6.80;3.33;;;;;;;6.94;59.18;101798.75;5114337;28;20036;-65
2022/04/15 07:48:49;;;;;;;9.93;3.33;;;;;;;6.93;60.12;101798.84;5132942;27;20066;-67
2022/04/15 07:51:15;;;;;;;7.57;3.57;;;;;;;6.83;59.65;101793.41;5135274;27;20031;-63
2022/04/15 07:53:41;;;;;;;7.63;3.17;;;;;;;6.85;59.74;101802.06;5133375;28;20038;-67
2022/04/15 07:56:06;;;;;;;15.77;3.30;;;;;;;6.85;59.67;101802.06;5133043;28;20546;-69
2022/04/15 07:58:32;;;;;;;9.83;3.27;;;;;;;6.74;60.81;101799.38;5132834;28;20110;-67
2022/04/15 08:01:00;;;;;;;4.30;2.77;;;;;;;6.72;60.93;101802.16;5133223;28;20039;-70
2022/04/15 08:03:27;;;;;;;5.13;2.95;;;;;;;6.60;60.85;101804.81;5132963;28;20099;-71
2022/04/15 08:05:53;;;;;;;7.30;3.07;;;;;;;6.55;61.14;101812.25;5132816;28;20047;-67
2022/04/15 08:08:20;;;;;;;10.20;3.33;;;;;;;6.45;61.42;101810.28;5133217;28;20043;-66
2022/04/15 08:10:48;;;;;;;5.10;2.80;;;;;;;6.35;61.67;101803.94;5132977;28;20374;-67
2022/04/15 08:13:14;;;;;;;7.75;3.40;;;;;;;6.41;62.58;101807.97;5132562;28;20133;-66
2022/04/15 08:15:43;;;;;;;6.10;2.90;;;;;;;6.34;61.72;101812.84;5132888;27;20150;-68
2022/04/15 08:18:09;;;;;;;5.13;3.10;;;;;;;6.32;61.14;101808.59;5137228;27;20039;-70
2022/04/15 08:20:35;;;;;;;4.73;2.53;;;;;;;6.37;61.61;101812.63;5118529;27;20559;-67
2022/04/15 08:23:00;;;;;;;4.90;3.00;;;;;;;6.49;61.93;101822.34;5136638;27;20038;-65
2022/04/15 08:25:26;;;;;;;8.27;2.53;;;;;;;6.50;60.94;101818.72;5136537;27;20031;-67
2022/04/15 08:27:51;;;;;;;7.23;3.60;;;;;;;6.42;61.46;101818.44;5136522;27;20439;-67
2022/04/15 08:30:17;;;;;;;9.77;3.80;;;;;;;6.27;62.09;101810.75;5137558;27;20470;-69
2022/04/15 08:32:43;;;;;;;8.60;4.37;;;;;;;6.33;62.14;101815.59;5136412;27;20039;-67
2022/04/15 08:35:13;;;;;;;3.93;2.77;;;;;;;6.43;62.56;101827.22;5118027;27;20095;-67
2022/04/15 08:37:38;;;;;;;7.97;3.00;;;;;;;6.50;62.45;101828.47;5136464;27;20039;-65
2022/04/15 08:40:05;;;;;;;7.97;3.20;;;;;;;6.43;61.88;101836.00;5136445;27;20034;-75
2022/04/15 08:42:31;;;;;;;10.63;3.10;;;;;;;6.21;62.27;101822.59;5135873;27;20035;-69
2022/04/15 08:44:57;;;;;;;4.97;2.73;;;;;;;5.97;63.35;101827.81;5137282;27;20346;-75
2022/04/15 08:47:24;;;;;;;8.53;3.17;;;;;;;5.96;63.89;101827.94;5136387;27;20122;-69
2022/04/15 08:49:50;;;;;;;4.70;2.90;;;;;;;5.83;64.60;101834.03;5136155;27;20043;-69
2022/04/15 08:52:17;;;;;;;2.93;2.63;;;;;;;5.67;65.48;101828.09;5135919;27;20402;-65
2022/04/15 08:54:45;;;;;;;4.00;2.73;;;;;;;5.78;66.01;101838.81;5135863;27;20549;-70
2022/04/15 08:57:11;;;;;;;7.43;2.78;;;;;;;5.88;65.91;101842.50;5135878;27;20357;-67
2022/04/15 08:59:40;;;;;;;2.97;2.33;;;;;;;5.98;65.28;101841.88;5137174;27;20035;-69
2022/04/15 09:02:06;;;;;;;2.13;1.85;;;;;;;6.22;63.61;101846.31;5136575;27;20486;-68
2022/04/15 09:04:32;;;;;;;9.57;3.27;;;;;;;6.24;63.58;101834.78;5136454;27;20043;-75
2022/04/15 09:07:02;;;;;;;4.27;2.53;;;;;;;6.32;63.12;101840.34;5135752;27;20747;-63
2022/04/15 09:09:31;;;;;;;5.70;2.50;;;;;;;6.47;62.65;101845.41;5135662;27;20639;-68
2022/04/15 09:11:59;;;;;;;12.10;2.97;;;;;;;6.60;61.29;101844.53;5135698;27;20039;-73
2022/04/15 09:14:27;;;;;;;3.83;2.07;;;;;;;6.53;61.18;101834.38;5137610;27;20265;-68
2022/04/15 09:16:53;;;;;;;5.87;2.43;;;;;;;6.61;60.84;101836.47;5135697;27;20297;-67
2022/04/15 09:19:19;;;;;;;4.07;2.47;;;;;;;6.81;60.16;101842.97;5135813;27;20299;-65
2022/04/15 09:21:56;;;;;;;3.63;2.50;;;;;;;6.91;59.99;101833.38;5135828;27;20031;-66
2022/04/15 09:24:34;;;;;;;4.17;2.20;;;;;;;6.95;60.54;101850.78;5135501;27;20269;-69
2022/04/15 09:27:04;;;;;;;4.22;2.60;;;;;;;6.88;60.72;101836.25;5135419;27;20047;-64
2022/04/15 09:29:38;;;;;;;3.57;2.40;;;;;;;7.03;60.78;101839.59;5116855;27;20046;-68
2022/04/15 09:32:14;;;;;;;4.73;2.50;;;;;;;6.93;59.74;101836.78;5117091;27;20054;-64
2022/04/15 09:34:56;;;;;;;3.10;2.10;;;;;;;6.92;60.38;101853.63;5135360;27;20035;-65
2022/04/15 09:37:27;;;;;;;7.63;2.63;;;;;;;6.97;60.80;101840.91;5135440;27;20047;-65
2022/04/15 09:40:18;;;;;;;7.30;3.23;;;;;;;7.09;59.69;101850.59;5135077;27;20031;-65
2022/04/15 09:42:47;;;;;;;3.73;2.03;;;;;;;7.01;59.46;101847.66;5136026;27;20087;-67
2022/04/15 09:45:19;;;;;;;3.08;2.63;;;;;;;6.94;59.90;101856.16;5135404;27;20035;-64
2022/04/15 09:48:02;;;;;;;6.10;2.17;;;;;;;6.89;59.92;101834.47;5134844;27;20379;-71
2022/04/15 09:50:34;;;;;;;6.80;2.40;;;;;;;6.94;60.03;101851.72;5136253;27;20031;-69
2022/04/15 09:53:07;;;;;;;2.53;1.80;;;;;;;6.91;59.23;101864.31;5140148;27;20053;-75
2022/04/15 09:55:34;;;;;;;3.70;1.60;;;;;;;6.70;59.70;101861.44;5137452;27;20427;-72
2022/04/15 09:58:06;;;;;;;2.90;1.80;;;;;;;6.74;59.97;101866.41;5135757;27;20339;-67
2022/04/15 10:00:35;;;;;;;2.50;2.10;;;;;;;6.83;58.74;101872.84;5135608;27;20125;-73
2022/04/15 10:03:03;;;;;;;2.78;2.55;;;;;;;6.41;60.48;101877.63;5135364;27;20027;-66
2022/04/15 10:05:30;;;;;;;2.10;1.70;;;;;;;6.10;62.53;101872.78;5135533;27;20039;-68
2022/04/15 10:07:56;;;;;;;3.03;2.17;;;;;;;6.01;62.79;101868.09;5136212;27;20462;-71
2022/04/15 10:10:22;;;;;;;4.40;2.73;;;;;;;6.22;62.70;101864.81;5137567;27;20031;-71
2022/04/15 10:12:49;;;;;;;11.37;2.57;;;;;;;6.59;60.74;101880.72;5136054;27;20356;-67
2022/04/15 10:15:17;;;;;;;2.93;1.90;;;;;;;6.88;60.21;101873.34;5137471;27;20474;-64
2022/04/15 10:17:42;;;;;;;8.57;2.30;;;;;;;7.10;58.62;101865.53;5134554;27;20536;-65
2022/04/15 10:20:08;;;;;;;2.40;2.23;;;;;;;7.18;58.91;101875.53;5134591;27;20058;-65
2022/04/15 10:22:39;;;;;;;3.33;1.73;;;;;;;7.39;57.10;101881.91;5134477;27;20035;-64
2022/04/15 10:25:07;;;;;;;4.53;2.30;;;;;;;7.46;57.29;101874.34;5134461;27;20035;-63
2022/04/15 10:27:33;;;;;;;5.37;3.00;;;;;;;7.51;56.97;101874.81;5134520;27;20041;-64
2022/04/15 10:30:15;;;;;;;7.00;2.87;;;;;;;7.78;56.90;101878.03;5134906;27;20505;-62
2022/04/15 10:32:48;;;;;;;3.83;2.87;;;;;;;8.04;55.53;101867.22;5133806;27;20038;-65
2022/04/15 10:35:22;;;;;;;5.20;3.17;;;;;;;8.03;55.80;101882.31;5133940;27;20027;-63
2022/04/15 10:38:00;;;;;;;7.30;2.97;;;;;;;7.74;56.10;101873.94;5133753;27;20088;-64
2022/04/15 10:40:31;;;;;;;7.70;3.17;;;;;;;7.72;56.47;101880.31;5133655;27;20039;-70
2022/04/15 10:43:19;;;;;;;10.87;2.87;;;;;;;7.45;56.38;101880.59;5115617;27;20398;-69
2022/04/15 10:45:45;;;;;;;1.83;1.67;;;;;;;7.12;57.53;101889.25;5134259;27;20031;-69
2022/04/15 10:48:11;;;;;;;3.73;2.00;;;;;;;6.91;58.66;101888.16;5115479;27;20069;-67
2022/04/15 10:50:39;;;;;;;6.87;2.20;;;;;;;6.85;58.80;101884.16;5134039;27;20038;-71
2022/04/15 10:53:18;;;;;;;11.75;2.60;;;;;;;6.73;59.67;101879.75;5133613;27;20547;-70
2022/04/15 10:55:47;;;;;;;;;;;;;;;6.79;58.97;101903.16;5133794;27;20043;-69
2022/04/15 10:58:14;;;;;;;5.67;2.93;;;;;;;6.47;59.56;101887.75;5133429;27;19927;-65
2022/04/15 11:03:25;;;;;;;8.50;2.40;;;;;;;6.21;60.66;101901.97;5133269;27;20790;-70
2022/04/15 11:05:57;;;;;;;3.90;2.10;;;;;;;6.08;61.65;101899.34;5115056;27;20349;-69
2022/04/15 11:08:24;;;;;;;4.27;2.30;;;;;;;5.73;61.95;101869.97;5133150;27;20379;-70
2022/04/15 11:10:49;;;;;;;9.90;2.23;;;;;;;5.80;61.70;101905.63;5133404;27;20351;-71
2022/04/15 11:13:27;;;;;;;9.70;2.60;;;;;;;5.76;62.63;101909.41;5114707;27;20707;-69
2022/04/15 11:15:55;;;;;;;5.80;2.63;;;;;;;5.73;62.85;101903.47;5112223;28;20059;-70
2022/04/15 11:18:43;;;;;;;5.23;2.07;;;;;;;5.97;62.27;101912.44;5088963;27;20381;-70
2022/04/15 11:21:21;;;;;;;3.67;2.33;;;;;;;6.29;61.13;101894.34;5088997;28;20301;-70
2022/04/15 11:24:00;;;;;;;7.10;2.73;;;;;;;6.50;59.86;101897.28;5089202;28;20290;-73
2022/04/15 11:26:28;;;;;;;3.73;2.17;;;;;;;6.62;59.58;101906.97;5088995;28;20328;-65
2022/04/15 11:28:55;;;;;;;4.17;2.27;;;;;;;6.77;58.64;101905.06;5089124;28;20032;-67
2022/04/15 11:31:24;;;;;;;4.43;2.43;;;;;;;6.89;58.32;101901.50;5089296;28;20496;-68
2022/04/15 11:33:50;;;;;;;4.85;2.53;;;;;;;6.98;57.46;101911.47;5088922;28;20476;-66
2022/04/15 11:36:18;;;;;;;7.27;2.57;;;;;;;6.95;57.85;101914.34;5089068;28;20054;-69
2022/04/15 11:38:45;;;;;;;4.40;2.10;;;;;;;6.71;58.65;101903.69;5088964;28;20032;-67